This is the latest recevied weather packets stored in our database for station/object HB9KBJ-8. If no packets are shown the sender has not sent any weather packets the latest 10 day(s).
| Time | Temp. | Humidity | Pressure | Rain* | Wind** | Luminosity | Snow |
|---|---|---|---|---|---|---|---|
| 1777707149 | 13.33° C | 70% | 1024 hPa | 0 mm | - | 315 W/m² | - |
| 1777706842 | 12.78° C | 71% | 1024 hPa | 0 mm | - | 325 W/m² | - |
| 1777706555 | 12.78° C | 72% | 1024 hPa | 0 mm | - | 339 W/m² | - |
| 1777706232 | 12.78° C | 72% | 1024 hPa | 0 mm | - | 392 W/m² | - |
| 1777705936 | 12.22° C | 73% | 1023.9 hPa | 0 mm | - | 373 W/m² | - |
| 1777705639 | 12.22° C | 71% | 1023.9 hPa | 0 mm | - | 383 W/m² | - |
| 1777705337 | 12.78° C | 70% | 1024 hPa | 0 mm | - | 348 W/m² | - |
| 1777705052 | 13.89° C | 68% | 1024.1 hPa | 0 mm | - | 329 W/m² | - |
| 1777704743 | 12.78° C | 74% | 1024.1 hPa | 0 mm | - | 336 W/m² | - |
| 1777704456 | 12.78° C | 72% | 1024.2 hPa | 0 mm | - | 318 W/m² | - |
| 1777704134 | 12.78° C | 71% | 1024.3 hPa | 0 mm | - | 306 W/m² | - |
| 1777703850 | 12.78° C | 72% | 1024.2 hPa | 0 mm | - | 271 W/m² | - |
| 1777703549 | 12.78° C | 74% | 1024.2 hPa | 0 mm | - | 232 W/m² | - |
| 1777703246 | 12.22° C | 76% | 1024.2 hPa | 0 mm | - | 237 W/m² | - |
| 1777702942 | 11.11° C | 78% | 1024.1 hPa | 0 mm | - | 230 W/m² | - |
| 1777702655 | 11.11° C | 79% | 1024.2 hPa | 0 mm | - | 232 W/m² | - |
| 1777702347 | 10.56° C | 81% | 1024.2 hPa | 0 mm | - | 216 W/m² | - |
| 1777702045 | 9.44° C | 80% | 1024.2 hPa | 0 mm | - | 195 W/m² | - |
| 1777701748 | 9.44° C | 80% | 1024.2 hPa | 0 mm | - | 183 W/m² | - |
| 1777701441 | 10° C | 82% | 1024.2 hPa | 0 mm | - | 163 W/m² | - |
| 1777701135 | 9.44° C | 83% | 1024.1 hPa | 0 mm | - | 141 W/m² | - |
| 1777700850 | 9.44° C | 84% | 1024.2 hPa | 0 mm | - | 121 W/m² | - |
| 1777700548 | 8.89° C | 85% | 1024.2 hPa | 0 mm | - | 118 W/m² | - |
| 1777700247 | 8.89° C | 85% | 1024.2 hPa | 0 mm | - | 121 W/m² | - |
| 1777699947 | 8.33° C | 85% | 1024.2 hPa | 0 mm | - | 95 W/m² | - |
* Rain latest hour (hover to see other rain measurements)
** Current wind speed in m/s (hover to see current wind gust speed)